sensor_id;sensor_type;location;lat;lon;timestamp;P1;durP1;ratioP1;P2;durP2;ratioP2
16320;SDS011;8269;50.990;4.494;2023-05-03T00:02:10;9.27;;;4.37;;
16320;SDS011;8269;50.990;4.494;2023-05-03T00:04:36;8.17;;;4.10;;
16320;SDS011;8269;50.990;4.494;2023-05-03T00:07:02;8.33;;;4.10;;
16320;SDS011;8269;50.990;4.494;2023-05-03T00:09:29;7.70;;;3.90;;
16320;SDS011;8269;50.990;4.494;2023-05-03T00:11:57;5.83;;;3.97;;
16320;SDS011;8269;50.990;4.494;2023-05-03T00:14:24;7.97;;;3.90;;
16320;SDS011;8269;50.990;4.494;2023-05-03T00:16:50;7.53;;;4.40;;
16320;SDS011;8269;50.990;4.494;2023-05-03T00:19:17;9.67;;;4.17;;
16320;SDS011;8269;50.990;4.494;2023-05-03T00:21:43;9.37;;;4.30;;
16320;SDS011;8269;50.990;4.494;2023-05-03T00:24:10;8.77;;;4.07;;
16320;SDS011;8269;50.990;4.494;2023-05-03T00:26:35;6.60;;;3.73;;
16320;SDS011;8269;50.990;4.494;2023-05-03T00:29:01;8.13;;;4.03;;
16320;SDS011;8269;50.990;4.494;2023-05-03T00:31:27;8.70;;;4.43;;
16320;SDS011;8269;50.990;4.494;2023-05-03T00:33:53;10.00;;;4.17;;
16320;SDS011;8269;50.990;4.494;2023-05-03T00:36:18;7.43;;;4.10;;
16320;SDS011;8269;50.990;4.494;2023-05-03T00:38:45;10.10;;;4.33;;
16320;SDS011;8269;50.990;4.494;2023-05-03T00:41:11;10.87;;;4.20;;
16320;SDS011;8269;50.990;4.494;2023-05-03T00:43:37;10.37;;;4.27;;
16320;SDS011;8269;50.990;4.494;2023-05-03T00:46:05;8.87;;;4.40;;
16320;SDS011;8269;50.990;4.494;2023-05-03T00:48:32;7.10;;;4.13;;
16320;SDS011;8269;50.990;4.494;2023-05-03T00:50:59;9.47;;;4.40;;
16320;SDS011;8269;50.990;4.494;2023-05-03T00:53:26;7.33;;;4.20;;
16320;SDS011;8269;50.990;4.494;2023-05-03T00:55:53;10.47;;;4.57;;
16320;SDS011;8269;50.990;4.494;2023-05-03T00:58:20;8.33;;;4.30;;
16320;SDS011;8269;50.990;4.494;2023-05-03T01:00:46;8.43;;;4.40;;
16320;SDS011;8269;50.990;4.494;2023-05-03T01:03:13;9.47;;;4.97;;
16320;SDS011;8269;50.990;4.494;2023-05-03T01:05:44;7.23;;;4.50;;
16320;SDS011;8269;50.990;4.494;2023-05-03T01:10:53;6.87;;;4.13;;
16320;SDS011;8269;50.990;4.494;2023-05-03T01:13:27;11.67;;;4.90;;
16320;SDS011;8269;50.990;4.494;2023-05-03T01:18:29;10.03;;;4.90;;
16320;SDS011;8269;50.990;4.494;2023-05-03T01:20:58;7.23;;;4.53;;
16320;SDS011;8269;50.990;4.494;2023-05-03T01:23:31;8.23;;;4.57;;
16320;SDS011;8269;50.990;4.494;2023-05-03T01:25:57;8.00;;;4.57;;
16320;SDS011;8269;50.990;4.494;2023-05-03T01:28:23;9.00;;;4.77;;
16320;SDS011;8269;50.990;4.494;2023-05-03T01:30:49;8.80;;;4.90;;
16320;SDS011;8269;50.990;4.494;2023-05-03T01:33:30;9.23;;;4.67;;
16320;SDS011;8269;50.990;4.494;2023-05-03T01:36:04;9.67;;;4.17;;
16320;SDS011;8269;50.990;4.494;2023-05-03T01:38:37;9.93;;;4.70;;
16320;SDS011;8269;50.990;4.494;2023-05-03T01:41:13;9.67;;;4.57;;
16320;SDS011;8269;50.990;4.494;2023-05-03T01:43:42;7.10;;;4.67;;
16320;SDS011;8269;50.990;4.494;2023-05-03T01:46:08;10.13;;;5.47;;
16320;SDS011;8269;50.990;4.494;2023-05-03T01:48:34;9.37;;;5.43;;
16320;SDS011;8269;50.990;4.494;2023-05-03T01:51:02;9.40;;;5.10;;
16320;SDS011;8269;50.990;4.494;2023-05-03T01:53:27;7.73;;;4.77;;
16320;SDS011;8269;50.990;4.494;2023-05-03T01:55:53;7.43;;;5.07;;
16320;SDS011;8269;50.990;4.494;2023-05-03T01:58:18;10.13;;;5.27;;
16320;SDS011;8269;50.990;4.494;2023-05-03T02:00:44;10.37;;;5.03;;
16320;SDS011;8269;50.990;4.494;2023-05-03T02:03:13;11.37;;;4.90;;
16320;SDS011;8269;50.990;4.494;2023-05-03T02:05:40;8.50;;;4.83;;
16320;SDS011;8269;50.990;4.494;2023-05-03T02:08:05;8.27;;;4.77;;
16320;SDS011;8269;50.990;4.494;2023-05-03T02:10:31;9.50;;;5.00;;
16320;SDS011;8269;50.990;4.494;2023-05-03T02:12:57;8.20;;;4.80;;
16320;SDS011;8269;50.990;4.494;2023-05-03T02:15:23;9.23;;;5.03;;
16320;SDS011;8269;50.990;4.494;2023-05-03T02:17:49;10.93;;;5.90;;
16320;SDS011;8269;50.990;4.494;2023-05-03T02:20:14;8.93;;;5.13;;
16320;SDS011;8269;50.990;4.494;2023-05-03T02:22:40;9.10;;;5.30;;
16320;SDS011;8269;50.990;4.494;2023-05-03T02:25:06;7.83;;;4.97;;
16320;SDS011;8269;50.990;4.494;2023-05-03T02:27:32;11.07;;;5.40;;
16320;SDS011;8269;50.990;4.494;2023-05-03T02:29:58;10.07;;;5.60;;
16320;SDS011;8269;50.990;4.494;2023-05-03T02:32:23;7.63;;;5.17;;
16320;SDS011;8269;50.990;4.494;2023-05-03T02:34:49;11.50;;;5.47;;
16320;SDS011;8269;50.990;4.494;2023-05-03T02:37:16;8.07;;;4.90;;
16320;SDS011;8269;50.990;4.494;2023-05-03T02:39:42;9.77;;;5.80;;
16320;SDS011;8269;50.990;4.494;2023-05-03T02:42:07;9.43;;;5.83;;
16320;SDS011;8269;50.990;4.494;2023-05-03T02:44:33;10.63;;;5.57;;
16320;SDS011;8269;50.990;4.494;2023-05-03T02:46:59;7.93;;;5.03;;
16320;SDS011;8269;50.990;4.494;2023-05-03T02:49:25;8.50;;;4.93;;
16320;SDS011;8269;50.990;4.494;2023-05-03T02:51:50;9.07;;;5.07;;
16320;SDS011;8269;50.990;4.494;2023-05-03T02:54:17;7.97;;;5.30;;
16320;SDS011;8269;50.990;4.494;2023-05-03T02:56:43;9.03;;;5.23;;
16320;SDS011;8269;50.990;4.494;2023-05-03T02:59:08;11.33;;;5.40;;
16320;SDS011;8269;50.990;4.494;2023-05-03T03:01:34;8.27;;;5.47;;
16320;SDS011;8269;50.990;4.494;2023-05-03T03:04:00;7.67;;;5.27;;
16320;SDS011;8269;50.990;4.494;2023-05-03T03:06:25;9.53;;;5.50;;
16320;SDS011;8269;50.990;4.494;2023-05-03T03:08:52;8.77;;;5.27;;
16320;SDS011;8269;50.990;4.494;2023-05-03T03:14:01;9.63;;;5.60;;
16320;SDS011;8269;50.990;4.494;2023-05-03T03:16:27;10.07;;;5.33;;
16320;SDS011;8269;50.990;4.494;2023-05-03T03:18:53;10.40;;;5.57;;
16320;SDS011;8269;50.990;4.494;2023-05-03T03:21:19;9.70;;;5.13;;
16320;SDS011;8269;50.990;4.494;2023-05-03T03:23:44;12.33;;;5.20;;
16320;SDS011;8269;50.990;4.494;2023-05-03T03:26:10;8.63;;;5.67;;
16320;SDS011;8269;50.990;4.494;2023-05-03T03:28:36;8.97;;;6.00;;
16320;SDS011;8269;50.990;4.494;2023-05-03T03:31:02;9.93;;;5.50;;
16320;SDS011;8269;50.990;4.494;2023-05-03T03:33:27;10.87;;;6.00;;
16320;SDS011;8269;50.990;4.494;2023-05-03T03:35:53;8.33;;;5.37;;
16320;SDS011;8269;50.990;4.494;2023-05-03T03:38:19;11.17;;;5.87;;
16320;SDS011;8269;50.990;4.494;2023-05-03T03:40:44;13.73;;;6.20;;
16320;SDS011;8269;50.990;4.494;2023-05-03T03:43:10;10.70;;;5.87;;
16320;SDS011;8269;50.990;4.494;2023-05-03T03:45:36;10.60;;;6.20;;
16320;SDS011;8269;50.990;4.494;2023-05-03T03:48:01;8.17;;;5.70;;
16320;SDS011;8269;50.990;4.494;2023-05-03T03:50:27;11.77;;;5.73;;
16320;SDS011;8269;50.990;4.494;2023-05-03T03:52:53;9.40;;;5.90;;
16320;SDS011;8269;50.990;4.494;2023-05-03T03:55:19;9.50;;;6.17;;
16320;SDS011;8269;50.990;4.494;2023-05-03T03:57:44;12.87;;;6.30;;
16320;SDS011;8269;50.990;4.494;2023-05-03T04:00:10;9.27;;;6.00;;
16320;SDS011;8269;50.990;4.494;2023-05-03T04:02:36;10.73;;;5.63;;
16320;SDS011;8269;50.990;4.494;2023-05-03T04:05:02;9.20;;;5.67;;
16320;SDS011;8269;50.990;4.494;2023-05-03T04:07:28;9.60;;;6.07;;
16320;SDS011;8269;50.990;4.494;2023-05-03T04:09:54;10.73;;;6.20;;
16320;SDS011;8269;50.990;4.494;2023-05-03T04:12:20;8.97;;;5.97;;
16320;SDS011;8269;50.990;4.494;2023-05-03T04:14:46;12.13;;;6.30;;
16320;SDS011;8269;50.990;4.494;2023-05-03T04:17:11;13.03;;;6.07;;
16320;SDS011;8269;50.990;4.494;2023-05-03T04:19:37;11.40;;;6.00;;
16320;SDS011;8269;50.990;4.494;2023-05-03T04:22:03;12.03;;;5.50;;
16320;SDS011;8269;50.990;4.494;2023-05-03T04:24:29;8.73;;;5.53;;
16320;SDS011;8269;50.990;4.494;2023-05-03T04:26:55;9.17;;;5.80;;
16320;SDS011;8269;50.990;4.494;2023-05-03T04:29:22;8.60;;;5.97;;
16320;SDS011;8269;50.990;4.494;2023-05-03T04:31:49;10.17;;;6.13;;
16320;SDS011;8269;50.990;4.494;2023-05-03T04:34:14;12.00;;;5.70;;
16320;SDS011;8269;50.990;4.494;2023-05-03T04:36:40;10.80;;;5.97;;
16320;SDS011;8269;50.990;4.494;2023-05-03T04:39:07;9.97;;;5.73;;
16320;SDS011;8269;50.990;4.494;2023-05-03T04:41:35;9.70;;;6.27;;
16320;SDS011;8269;50.990;4.494;2023-05-03T04:44:01;9.73;;;6.00;;
16320;SDS011;8269;50.990;4.494;2023-05-03T04:46:26;8.97;;;5.70;;
16320;SDS011;8269;50.990;4.494;2023-05-03T04:48:52;11.35;;;6.47;;
16320;SDS011;8269;50.990;4.494;2023-05-03T04:51:18;7.77;;;5.37;;
16320;SDS011;8269;50.990;4.494;2023-05-03T04:53:43;7.30;;;5.07;;
16320;SDS011;8269;50.990;4.494;2023-05-03T04:56:09;8.97;;;4.93;;
16320;SDS011;8269;50.990;4.494;2023-05-03T04:58:35;8.67;;;5.17;;
16320;SDS011;8269;50.990;4.494;2023-05-03T05:01:01;7.90;;;4.87;;
16320;SDS011;8269;50.990;4.494;2023-05-03T05:03:27;7.97;;;4.53;;
16320;SDS011;8269;50.990;4.494;2023-05-03T05:05:55;9.27;;;5.10;;
16320;SDS011;8269;50.990;4.494;2023-05-03T05:08:21;11.00;;;5.00;;
16320;SDS011;8269;50.990;4.494;2023-05-03T05:10:47;8.60;;;4.83;;
16320;SDS011;8269;50.990;4.494;2023-05-03T05:13:13;8.77;;;4.50;;
16320;SDS011;8269;50.990;4.494;2023-05-03T05:15:39;8.00;;;4.27;;
16320;SDS011;8269;50.990;4.494;2023-05-03T05:18:04;6.87;;;4.03;;
16320;SDS011;8269;50.990;4.494;2023-05-03T05:20:30;9.00;;;5.00;;
16320;SDS011;8269;50.990;4.494;2023-05-03T05:22:56;9.13;;;4.63;;
16320;SDS011;8269;50.990;4.494;2023-05-03T05:25:22;10.40;;;4.20;;
16320;SDS011;8269;50.990;4.494;2023-05-03T05:27:47;7.10;;;4.40;;
16320;SDS011;8269;50.990;4.494;2023-05-03T05:30:13;6.75;;;4.47;;
16320;SDS011;8269;50.990;4.494;2023-05-03T05:32:39;9.93;;;4.20;;
16320;SDS011;8269;50.990;4.494;2023-05-03T05:35:05;6.17;;;3.90;;
16320;SDS011;8269;50.990;4.494;2023-05-03T05:37:30;7.80;;;4.50;;
16320;SDS011;8269;50.990;4.494;2023-05-03T05:39:56;7.00;;;4.15;;
16320;SDS011;8269;50.990;4.494;2023-05-03T05:42:22;5.82;;;4.22;;
16320;SDS011;8269;50.990;4.494;2023-05-03T05:44:48;9.57;;;4.97;;
16320;SDS011;8269;50.990;4.494;2023-05-03T05:47:14;8.75;;;4.80;;
16320;SDS011;8269;50.990;4.494;2023-05-03T05:49:39;10.23;;;4.90;;
16320;SDS011;8269;50.990;4.494;2023-05-03T05:52:06;9.60;;;4.55;;
16320;SDS011;8269;50.990;4.494;2023-05-03T05:54:32;11.10;;;5.03;;
16320;SDS011;8269;50.990;4.494;2023-05-03T05:56:58;8.93;;;4.60;;
16320;SDS011;8269;50.990;4.494;2023-05-03T05:59:23;7.93;;;5.25;;
16320;SDS011;8269;50.990;4.494;2023-05-03T06:01:49;8.73;;;5.20;;
16320;SDS011;8269;50.990;4.494;2023-05-03T06:04:15;7.55;;;5.30;;
16320;SDS011;8269;50.990;4.494;2023-05-03T06:06:40;9.02;;;5.13;;
16320;SDS011;8269;50.990;4.494;2023-05-03T06:09:06;8.38;;;5.40;;
16320;SDS011;8269;50.990;4.494;2023-05-03T06:11:32;8.93;;;5.75;;
16320;SDS011;8269;50.990;4.494;2023-05-03T06:13:58;9.10;;;5.45;;
16320;SDS011;8269;50.990;4.494;2023-05-03T06:16:24;8.60;;;5.50;;
16320;SDS011;8269;50.990;4.494;2023-05-03T06:18:50;8.13;;;5.47;;
16320;SDS011;8269;50.990;4.494;2023-05-03T06:21:16;8.45;;;5.47;;
16320;SDS011;8269;50.990;4.494;2023-05-03T06:23:42;9.18;;;5.65;;
16320;SDS011;8269;50.990;4.494;2023-05-03T06:26:08;8.23;;;5.72;;
16320;SDS011;8269;50.990;4.494;2023-05-03T06:28:34;10.20;;;6.15;;
16320;SDS011;8269;50.990;4.494;2023-05-03T06:31:00;7.32;;;5.63;;
16320;SDS011;8269;50.990;4.494;2023-05-03T06:33:26;10.98;;;5.80;;
16320;SDS011;8269;50.990;4.494;2023-05-03T06:35:52;9.48;;;5.82;;
16320;SDS011;8269;50.990;4.494;2023-05-03T06:38:18;9.85;;;5.93;;
16320;SDS011;8269;50.990;4.494;2023-05-03T06:40:46;9.70;;;6.55;;
16320;SDS011;8269;50.990;4.494;2023-05-03T06:43:11;9.65;;;5.93;;
16320;SDS011;8269;50.990;4.494;2023-05-03T06:45:37;8.48;;;6.13;;
16320;SDS011;8269;50.990;4.494;2023-05-03T06:48:04;10.45;;;5.82;;
16320;SDS011;8269;50.990;4.494;2023-05-03T06:50:30;9.55;;;6.07;;
16320;SDS011;8269;50.990;4.494;2023-05-03T06:52:56;10.27;;;6.28;;
16320;SDS011;8269;50.990;4.494;2023-05-03T06:55:21;10.98;;;5.95;;
16320;SDS011;8269;50.990;4.494;2023-05-03T06:57:47;12.48;;;6.35;;
16320;SDS011;8269;50.990;4.494;2023-05-03T07:00:13;10.13;;;5.82;;
16320;SDS011;8269;50.990;4.494;2023-05-03T07:02:40;10.65;;;6.03;;
16320;SDS011;8269;50.990;4.494;2023-05-03T07:05:06;9.85;;;5.88;;
16320;SDS011;8269;50.990;4.494;2023-05-03T07:07:32;8.63;;;5.95;;
16320;SDS011;8269;50.990;4.494;2023-05-03T07:09:58;13.05;;;6.85;;
16320;SDS011;8269;50.990;4.494;2023-05-03T07:12:23;8.02;;;5.70;;
16320;SDS011;8269;50.990;4.494;2023-05-03T07:14:52;10.38;;;6.22;;
16320;SDS011;8269;50.990;4.494;2023-05-03T07:17:18;9.77;;;6.82;;
16320;SDS011;8269;50.990;4.494;2023-05-03T07:19:45;9.32;;;6.95;;
16320;SDS011;8269;50.990;4.494;2023-05-03T07:22:12;9.52;;;6.70;;
16320;SDS011;8269;50.990;4.494;2023-05-03T07:24:38;10.57;;;6.68;;
16320;SDS011;8269;50.990;4.494;2023-05-03T07:27:04;9.10;;;6.50;;
16320;SDS011;8269;50.990;4.494;2023-05-03T07:29:30;12.27;;;6.90;;
16320;SDS011;8269;50.990;4.494;2023-05-03T07:31:56;10.82;;;6.50;;
16320;SDS011;8269;50.990;4.494;2023-05-03T07:34:22;8.63;;;7.25;;
16320;SDS011;8269;50.990;4.494;2023-05-03T07:36:48;11.35;;;7.45;;
16320;SDS011;8269;50.990;4.494;2023-05-03T07:39:13;12.02;;;9.65;;
16320;SDS011;8269;50.990;4.494;2023-05-03T07:41:39;11.05;;;7.40;;
16320;SDS011;8269;50.990;4.494;2023-05-03T07:44:05;14.20;;;7.60;;
16320;SDS011;8269;50.990;4.494;2023-05-03T07:46:31;11.05;;;7.80;;
16320;SDS011;8269;50.990;4.494;2023-05-03T07:48:59;10.23;;;7.88;;
16320;SDS011;8269;50.990;4.494;2023-05-03T07:51:26;10.02;;;7.47;;
16320;SDS011;8269;50.990;4.494;2023-05-03T07:53:53;11.15;;;7.50;;
16320;SDS011;8269;50.990;4.494;2023-05-03T07:56:20;13.10;;;8.60;;
16320;SDS011;8269;50.990;4.494;2023-05-03T07:58:46;13.10;;;8.13;;
16320;SDS011;8269;50.990;4.494;2023-05-03T08:01:12;11.27;;;8.52;;
16320;SDS011;8269;50.990;4.494;2023-05-03T08:03:38;13.23;;;8.95;;
16320;SDS011;8269;50.990;4.494;2023-05-03T08:06:04;12.30;;;8.18;;
16320;SDS011;8269;50.990;4.494;2023-05-03T08:08:30;13.10;;;8.55;;
16320;SDS011;8269;50.990;4.494;2023-05-03T08:10:56;16.02;;;8.60;;
16320;SDS011;8269;50.990;4.494;2023-05-03T08:13:22;11.82;;;8.57;;
16320;SDS011;8269;50.990;4.494;2023-05-03T08:15:48;14.13;;;8.55;;
16320;SDS011;8269;50.990;4.494;2023-05-03T08:18:14;11.07;;;8.13;;
16320;SDS011;8269;50.990;4.494;2023-05-03T08:20:39;13.95;;;8.93;;
16320;SDS011;8269;50.990;4.494;2023-05-03T08:23:06;13.98;;;9.02;;
16320;SDS011;8269;50.990;4.494;2023-05-03T08:25:32;12.98;;;9.18;;
16320;SDS011;8269;50.990;4.494;2023-05-03T08:27:58;15.00;;;9.63;;
16320;SDS011;8269;50.990;4.494;2023-05-03T08:30:24;13.82;;;8.88;;
16320;SDS011;8269;50.990;4.494;2023-05-03T08:32:50;12.65;;;9.30;;
16320;SDS011;8269;50.990;4.494;2023-05-03T08:35:16;13.30;;;9.10;;
16320;SDS011;8269;50.990;4.494;2023-05-03T08:37:42;14.48;;;8.82;;
16320;SDS011;8269;50.990;4.494;2023-05-03T08:40:08;13.75;;;9.07;;
16320;SDS011;8269;50.990;4.494;2023-05-03T08:42:39;14.35;;;8.95;;
16320;SDS011;8269;50.990;4.494;2023-05-03T08:45:08;15.05;;;9.63;;
16320;SDS011;8269;50.990;4.494;2023-05-03T08:47:35;12.65;;;9.40;;
16320;SDS011;8269;50.990;4.494;2023-05-03T08:50:03;12.13;;;8.75;;
16320;SDS011;8269;50.990;4.494;2023-05-03T08:52:29;13.93;;;9.38;;
16320;SDS011;8269;50.990;4.494;2023-05-03T08:54:55;17.33;;;10.20;;
16320;SDS011;8269;50.990;4.494;2023-05-03T08:57:22;12.85;;;9.88;;
16320;SDS011;8269;50.990;4.494;2023-05-03T08:59:50;13.57;;;8.90;;
16320;SDS011;8269;50.990;4.494;2023-05-03T09:02:25;14.60;;;8.98;;
16320;SDS011;8269;50.990;4.494;2023-05-03T09:04:52;14.75;;;9.23;;
16320;SDS011;8269;50.990;4.494;2023-05-03T09:07:18;11.95;;;9.18;;
16320;SDS011;8269;50.990;4.494;2023-05-03T09:09:44;13.13;;;8.70;;
16320;SDS011;8269;50.990;4.494;2023-05-03T09:12:10;12.70;;;8.60;;
16320;SDS011;8269;50.990;4.494;2023-05-03T09:14:43;14.57;;;9.18;;
16320;SDS011;8269;50.990;4.494;2023-05-03T09:17:13;12.05;;;8.30;;
16320;SDS011;8269;50.990;4.494;2023-05-03T09:19:50;11.80;;;9.25;;
16320;SDS011;8269;50.990;4.494;2023-05-03T09:22:21;13.85;;;8.98;;
16320;SDS011;8269;50.990;4.494;2023-05-03T09:24:55;12.73;;;8.88;;
16320;SDS011;8269;50.990;4.494;2023-05-03T09:27:23;13.15;;;9.05;;
16320;SDS011;8269;50.990;4.494;2023-05-03T09:29:50;12.63;;;8.75;;
16320;SDS011;8269;50.990;4.494;2023-05-03T09:32:16;15.52;;;8.82;;
16320;SDS011;8269;50.990;4.494;2023-05-03T09:34:43;13.57;;;9.63;;
16320;SDS011;8269;50.990;4.494;2023-05-03T09:37:09;13.68;;;9.45;;
16320;SDS011;8269;50.990;4.494;2023-05-03T09:39:41;12.48;;;8.68;;
16320;SDS011;8269;50.990;4.494;2023-05-03T09:42:10;14.13;;;9.52;;
16320;SDS011;8269;50.990;4.494;2023-05-03T09:44:49;12.20;;;8.55;;
16320;SDS011;8269;50.990;4.494;2023-05-03T09:47:18;12.55;;;8.38;;
16320;SDS011;8269;50.990;4.494;2023-05-03T09:49:44;13.13;;;9.07;;
16320;SDS011;8269;50.990;4.494;2023-05-03T09:52:10;15.98;;;10.40;;
16320;SDS011;8269;50.990;4.494;2023-05-03T09:54:36;12.00;;;9.40;;
16320;SDS011;8269;50.990;4.494;2023-05-03T09:57:03;15.00;;;9.40;;
16320;SDS011;8269;50.990;4.494;2023-05-03T09:59:33;14.25;;;9.70;;
16320;SDS011;8269;50.990;4.494;2023-05-03T10:02:01;13.10;;;8.98;;
16320;SDS011;8269;50.990;4.494;2023-05-03T10:04:33;13.00;;;9.45;;
16320;SDS011;8269;50.990;4.494;2023-05-03T10:07:07;14.95;;;9.57;;
16320;SDS011;8269;50.990;4.494;2023-05-03T10:09:42;14.10;;;9.00;;
16320;SDS011;8269;50.990;4.494;2023-05-03T10:12:09;11.80;;;8.70;;
16320;SDS011;8269;50.990;4.494;2023-05-03T10:14:36;16.02;;;9.07;;
16320;SDS011;8269;50.990;4.494;2023-05-03T10:17:07;16.40;;;9.57;;
16320;SDS011;8269;50.990;4.494;2023-05-03T10:19:39;13.45;;;9.05;;
16320;SDS011;8269;50.990;4.494;2023-05-03T10:22:10;12.43;;;8.70;;
16320;SDS011;8269;50.990;4.494;2023-05-03T10:27:40;14.43;;;9.02;;
16320;SDS011;8269;50.990;4.494;2023-05-03T10:32:56;12.27;;;8.65;;
16320;SDS011;8269;50.990;4.494;2023-05-03T10:35:26;14.77;;;8.93;;
16320;SDS011;8269;50.990;4.494;2023-05-03T10:37:53;12.05;;;8.52;;
16320;SDS011;8269;50.990;4.494;2023-05-03T10:40:21;13.93;;;8.48;;
16320;SDS011;8269;50.990;4.494;2023-05-03T10:42:50;13.77;;;9.52;;
16320;SDS011;8269;50.990;4.494;2023-05-03T10:45:28;12.20;;;8.80;;
16320;SDS011;8269;50.990;4.494;2023-05-03T10:50:35;12.15;;;8.73;;
16320;SDS011;8269;50.990;4.494;2023-05-03T10:53:01;13.18;;;8.98;;
16320;SDS011;8269;50.990;4.494;2023-05-03T10:55:27;13.32;;;8.48;;
16320;SDS011;8269;50.990;4.494;2023-05-03T10:57:54;11.13;;;8.95;;
16320;SDS011;8269;50.990;4.494;2023-05-03T11:00:26;13.05;;;8.68;;
16320;SDS011;8269;50.990;4.494;2023-05-03T11:05:49;10.55;;;7.80;;
16320;SDS011;8269;50.990;4.494;2023-05-03T11:08:20;12.13;;;8.85;;
16320;SDS011;8269;50.990;4.494;2023-05-03T11:10:48;12.25;;;9.15;;
16320;SDS011;8269;50.990;4.494;2023-05-03T11:13:15;13.98;;;9.18;;
16320;SDS011;8269;50.990;4.494;2023-05-03T11:15:42;13.43;;;9.50;;
16320;SDS011;8269;50.990;4.494;2023-05-03T11:18:08;13.70;;;8.68;;
16320;SDS011;8269;50.990;4.494;2023-05-03T11:20:37;13.00;;;8.65;;
16320;SDS011;8269;50.990;4.494;2023-05-03T11:23:04;12.57;;;8.77;;
16320;SDS011;8269;50.990;4.494;2023-05-03T11:25:31;15.38;;;9.57;;
16320;SDS011;8269;50.990;4.494;2023-05-03T11:28:00;13.40;;;9.48;;
16320;SDS011;8269;50.990;4.494;2023-05-03T11:30:28;13.68;;;9.27;;
16320;SDS011;8269;50.990;4.494;2023-05-03T11:32:57;12.50;;;8.98;;
16320;SDS011;8269;50.990;4.494;2023-05-03T11:35:23;10.70;;;8.60;;
16320;SDS011;8269;50.990;4.494;2023-05-03T11:37:50;14.55;;;9.15;;
16320;SDS011;8269;50.990;4.494;2023-05-03T11:40:17;13.52;;;9.00;;
16320;SDS011;8269;50.990;4.494;2023-05-03T11:42:53;15.18;;;9.38;;
16320;SDS011;8269;50.990;4.494;2023-05-03T11:45:23;15.25;;;9.65;;
16320;SDS011;8269;50.990;4.494;2023-05-03T11:48:10;15.52;;;9.98;;
16320;SDS011;8269;50.990;4.494;2023-05-03T11:53:18;12.95;;;9.77;;
16320;SDS011;8269;50.990;4.494;2023-05-03T11:55:45;14.40;;;10.00;;
16320;SDS011;8269;50.990;4.494;2023-05-03T11:58:15;15.05;;;9.07;;
16320;SDS011;8269;50.990;4.494;2023-05-03T12:00:45;16.30;;;9.93;;
16320;SDS011;8269;50.990;4.494;2023-05-03T12:03:26;13.32;;;9.45;;
16320;SDS011;8269;50.990;4.494;2023-05-03T12:05:54;12.82;;;9.27;;
16320;SDS011;8269;50.990;4.494;2023-05-03T12:08:21;15.82;;;9.63;;
16320;SDS011;8269;50.990;4.494;2023-05-03T12:10:54;14.93;;;9.57;;
16320;SDS011;8269;50.990;4.494;2023-05-03T12:13:26;15.43;;;10.18;;
16320;SDS011;8269;50.990;4.494;2023-05-03T12:15:58;13.55;;;9.80;;
16320;SDS011;8269;50.990;4.494;2023-05-03T12:18:25;13.65;;;10.25;;
16320;SDS011;8269;50.990;4.494;2023-05-03T12:20:55;16.83;;;9.95;;
16320;SDS011;8269;50.990;4.494;2023-05-03T12:23:22;12.90;;;9.57;;
16320;SDS011;8269;50.990;4.494;2023-05-03T12:25:48;14.13;;;10.07;;
16320;SDS011;8269;50.990;4.494;2023-05-03T12:28:15;13.70;;;9.43;;
16320;SDS011;8269;50.990;4.494;2023-05-03T12:30:42;13.65;;;9.75;;
16320;SDS011;8269;50.990;4.494;2023-05-03T12:33:08;12.05;;;9.88;;
16320;SDS011;8269;50.990;4.494;2023-05-03T12:35:34;16.92;;;10.35;;
16320;SDS011;8269;50.990;4.494;2023-05-03T12:38:01;12.23;;;9.20;;
16320;SDS011;8269;50.990;4.494;2023-05-03T12:40:30;12.63;;;9.35;;
16320;SDS011;8269;50.990;4.494;2023-05-03T12:42:56;14.10;;;10.23;;
16320;SDS011;8269;50.990;4.494;2023-05-03T12:45:22;12.65;;;9.57;;
16320;SDS011;8269;50.990;4.494;2023-05-03T12:47:48;12.43;;;9.10;;
16320;SDS011;8269;50.990;4.494;2023-05-03T12:50:14;14.38;;;9.15;;
16320;SDS011;8269;50.990;4.494;2023-05-03T12:52:40;13.10;;;8.73;;
16320;SDS011;8269;50.990;4.494;2023-05-03T12:55:06;11.23;;;7.47;;
16320;SDS011;8269;50.990;4.494;2023-05-03T12:57:32;12.25;;;8.70;;
16320;SDS011;8269;50.990;4.494;2023-05-03T12:59:58;14.50;;;8.65;;
16320;SDS011;8269;50.990;4.494;2023-05-03T13:02:25;12.15;;;7.90;;
16320;SDS011;8269;50.990;4.494;2023-05-03T13:04:51;11.50;;;8.63;;
16320;SDS011;8269;50.990;4.494;2023-05-03T13:07:22;11.20;;;8.75;;
16320;SDS011;8269;50.990;4.494;2023-05-03T13:09:52;11.13;;;8.77;;
16320;SDS011;8269;50.990;4.494;2023-05-03T13:12:18;14.68;;;8.57;;
16320;SDS011;8269;50.990;4.494;2023-05-03T13:14:46;13.60;;;9.20;;
16320;SDS011;8269;50.990;4.494;2023-05-03T13:17:15;14.50;;;9.43;;
16320;SDS011;8269;50.990;4.494;2023-05-03T13:19:42;12.77;;;8.45;;
16320;SDS011;8269;50.990;4.494;2023-05-03T13:22:11;11.57;;;9.20;;
16320;SDS011;8269;50.990;4.494;2023-05-03T13:24:37;12.85;;;9.05;;
16320;SDS011;8269;50.990;4.494;2023-05-03T13:27:05;13.85;;;8.43;;
16320;SDS011;8269;50.990;4.494;2023-05-03T13:29:31;10.57;;;7.85;;
16320;SDS011;8269;50.990;4.494;2023-05-03T13:31:57;11.95;;;8.30;;
16320;SDS011;8269;50.990;4.494;2023-05-03T13:34:24;10.60;;;7.00;;
16320;SDS011;8269;50.990;4.494;2023-05-03T13:36:50;10.27;;;8.20;;
16320;SDS011;8269;50.990;4.494;2023-05-03T13:39:15;11.00;;;7.47;;
16320;SDS011;8269;50.990;4.494;2023-05-03T13:41:43;10.93;;;8.45;;
16320;SDS011;8269;50.990;4.494;2023-05-03T13:44:09;10.65;;;8.38;;
16320;SDS011;8269;50.990;4.494;2023-05-03T13:46:35;12.60;;;9.30;;
16320;SDS011;8269;50.990;4.494;2023-05-03T13:49:02;11.55;;;8.43;;
16320;SDS011;8269;50.990;4.494;2023-05-03T13:51:35;10.48;;;8.10;;
16320;SDS011;8269;50.990;4.494;2023-05-03T13:54:02;9.88;;;8.13;;
16320;SDS011;8269;50.990;4.494;2023-05-03T13:56:29;10.57;;;7.72;;
16320;SDS011;8269;50.990;4.494;2023-05-03T13:58:55;14.38;;;8.27;;
16320;SDS011;8269;50.990;4.494;2023-05-03T14:01:25;14.20;;;8.40;;
16320;SDS011;8269;50.990;4.494;2023-05-03T14:03:52;13.57;;;8.05;;
16320;SDS011;8269;50.990;4.494;2023-05-03T14:06:19;11.98;;;8.27;;
16320;SDS011;8269;50.990;4.494;2023-05-03T14:08:46;10.50;;;7.53;;
16320;SDS011;8269;50.990;4.494;2023-05-03T14:11:12;13.07;;;8.30;;
16320;SDS011;8269;50.990;4.494;2023-05-03T14:13:39;13.85;;;8.50;;
16320;SDS011;8269;50.990;4.494;2023-05-03T14:16:05;14.02;;;8.63;;
16320;SDS011;8269;50.990;4.494;2023-05-03T14:18:39;11.38;;;8.05;;
16320;SDS011;8269;50.990;4.494;2023-05-03T14:21:05;13.07;;;7.82;;
16320;SDS011;8269;50.990;4.494;2023-05-03T14:23:33;10.65;;;8.18;;
16320;SDS011;8269;50.990;4.494;2023-05-03T14:25:58;10.60;;;7.93;;
16320;SDS011;8269;50.990;4.494;2023-05-03T14:28:26;11.02;;;7.97;;
16320;SDS011;8269;50.990;4.494;2023-05-03T14:30:53;9.73;;;7.78;;
16320;SDS011;8269;50.990;4.494;2023-05-03T14:33:18;10.68;;;7.70;;
16320;SDS011;8269;50.990;4.494;2023-05-03T14:35:44;10.50;;;7.28;;
16320;SDS011;8269;50.990;4.494;2023-05-03T14:38:10;13.13;;;8.70;;
16320;SDS011;8269;50.990;4.494;2023-05-03T14:40:39;12.65;;;8.60;;
16320;SDS011;8269;50.990;4.494;2023-05-03T14:43:06;10.45;;;8.07;;
16320;SDS011;8269;50.990;4.494;2023-05-03T14:45:33;11.13;;;8.07;;
16320;SDS011;8269;50.990;4.494;2023-05-03T14:48:00;11.25;;;8.07;;
16320;SDS011;8269;50.990;4.494;2023-05-03T14:50:27;11.80;;;7.78;;
16320;SDS011;8269;50.990;4.494;2023-05-03T14:52:53;12.00;;;8.25;;
16320;SDS011;8269;50.990;4.494;2023-05-03T14:55:19;11.20;;;8.00;;
16320;SDS011;8269;50.990;4.494;2023-05-03T14:57:44;9.85;;;7.32;;
16320;SDS011;8269;50.990;4.494;2023-05-03T15:00:11;10.30;;;7.57;;
16320;SDS011;8269;50.990;4.494;2023-05-03T15:02:43;12.20;;;7.22;;
16320;SDS011;8269;50.990;4.494;2023-05-03T15:05:09;11.30;;;7.28;;
16320;SDS011;8269;50.990;4.494;2023-05-03T15:07:36;12.13;;;7.55;;
16320;SDS011;8269;50.990;4.494;2023-05-03T15:10:03;10.00;;;6.20;;
16320;SDS011;8269;50.990;4.494;2023-05-03T15:12:29;11.02;;;6.68;;
16320;SDS011;8269;50.990;4.494;2023-05-03T15:14:55;10.30;;;6.70;;